Time;durP1;ratioP1;P1;durP2;ratioP2;P2;SDS_P1;SDS_P2;PMS_P1;PMS_P2;Temp;Humidity;BMP_temperature;BMP_pressure;BME280_temperature;BME280_humidity;BME280_pressure;Samples;Min_cycle;Max_cycle;Signal;HPM_P1;HPM_P2
2022/11/28 00:01:42;;;;;;;;;;;;;;;;;;4996700;28;19917;-85
2022/11/28 00:04:07;;;;;;;;;;;;;;;;;;4996730;28;19992;-85
2022/11/28 00:06:32;;;;;;;;;;;;;;;;;;4993379;28;19976;-85
2022/11/28 00:08:57;;;;;;;;;;;;;;;;;;4992873;28;19922;-85
2022/11/28 00:11:22;;;;;;;;;;;;;;;;;;4991530;28;19940;-86
2022/11/28 00:13:47;;;;;;;;;;;;;;;;;;4993425;28;20407;-86
2022/11/28 00:16:12;;;;;;;;;;;;;;;;;;4993437;28;20342;-74
2022/11/28 00:18:38;;;;;;;;;;;;;;;;;;5006933;28;19929;-80
2022/11/28 00:21:03;;;;;;;;;;;;;;;;;;4998211;28;19909;-87
2022/11/28 00:23:29;;;;;;;;;;;;;;;;;;4994561;28;19914;-87
2022/11/28 00:25:54;;;;;;;;;;;;;;;;;;4991462;28;19910;-86
2022/11/28 00:28:19;;;;;;;;;;;;;;;;;;4974774;28;20000;-86
2022/11/28 00:30:44;;;;;;;;;;;;;;;;;;4993167;28;19906;-86
2022/11/28 00:33:09;;;;;;;;;;;;;;;;;;4977814;28;19965;-86
2022/11/28 00:35:34;;;;;;;;;;;;;;;;;;4995620;28;19910;-75
2022/11/28 00:37:59;;;;;;;;;;;;;;;;;;4990170;28;19995;-72
2022/11/28 00:40:24;;;;;;;;;;;;;;;;;;4989156;28;19949;-72
2022/11/28 00:42:49;;;;;;;;;;;;;;;;;;4990722;28;19905;-72
2022/11/28 00:45:15;;;;;;;;;;;;;;;;;;4994984;28;19956;-72
2022/11/28 00:47:40;;;;;;;;;;;;;;;;;;4994192;28;20585;-73
2022/11/28 00:50:05;;;;;;;;;;;;;;;;;;4984761;28;19953;-73
2022/11/28 00:52:30;;;;;;;;;;;;;;;;;;4993239;28;19917;-72
2022/11/28 00:54:55;;;;;;;;;;;;;;;;;;4992066;28;19949;-73
2022/11/28 00:57:20;;;;;;;;;;;;;;;;;;4994894;28;19964;-85
2022/11/28 00:59:45;;;;;;;;;;;;;;;;;;4990572;28;19910;-86
2022/11/28 01:02:11;;;;;;;;;;;;;;;;;;4998051;28;19924;-86
2022/11/28 01:04:36;;;;;;;;;;;;;;;;;;4992868;28;19917;-86
2022/11/28 01:07:01;;;;;;;;;;;;;;;;;;4997572;28;19910;-86
2022/11/28 01:09:26;;;;;;;;;;;;;;;;;;4992487;28;19948;-85
2022/11/28 01:11:51;;;;;;;;;;;;;;;;;;5000663;28;19910;-86
2022/11/28 01:14:16;;;;;;;;;;;;;;;;;;4990994;28;19956;-72
2022/11/28 01:16:41;;;;;;;;;;;;;;;;;;4992136;28;19964;-73
2022/11/28 01:19:07;;;;;;;;;;;;;;;;;;4991907;28;19918;-74
2022/11/28 01:21:32;;;;;;;;;;;;;;;;;;4990303;28;19910;-73
2022/11/28 01:23:57;;;;;;;;;;;;;;;;;;4991694;28;20377;-73
2022/11/28 01:26:22;;;;;;;;;;;;;;;;;;4990677;28;20349;-73
2022/11/28 01:28:47;;;;;;;;;;;;;;;;;;4991899;28;19906;-73
2022/11/28 01:31:12;;;;;;;;;;;;;;;;;;4995693;28;19910;-79
2022/11/28 01:33:37;;;;;;;;;;;;;;;;;;4995518;28;19910;-74
2022/11/28 01:36:03;;;;;;;;;;;;;;;;;;4994060;28;19949;-74
2022/11/28 01:38:28;;;;;;;;;;;;;;;;;;5003942;28;19928;-72
2022/11/28 01:40:54;;;;;;;;;;;;;;;;;;4994740;28;19906;-72
2022/11/28 01:43:20;;;;;;;;;;;;;;;;;;4996771;28;19913;-73
2022/11/28 01:45:45;;;;;;;;;;;;;;;;;;4995064;28;19906;-73
2022/11/28 01:48:10;;;;;;;;;;;;;;;;;;4996019;28;19920;-78
2022/11/28 01:50:35;;;;;;;;;;;;;;;;;;4995116;28;19909;-74
2022/11/28 01:53:00;;;;;;;;;;;;;;;;;;4996501;28;19960;-71
2022/11/28 01:55:25;;;;;;;;;;;;;;;;;;4995913;28;19910;-71
2022/11/28 01:57:51;;;;;;;;;;;;;;;;;;4995518;28;19917;-70
2022/11/28 02:00:16;;;;;;;;;;;;;;;;;;4994647;28;19913;-70
2022/11/28 02:02:41;;;;;;;;;;;;;;;;;;4993529;28;19914;-76
2022/11/28 02:05:06;;;;;;;;;;;;;;;;;;4993524;28;19944;-70
2022/11/28 02:07:32;;;;;;;;;;;;;;;;;;4995826;28;19914;-76
2022/11/28 02:09:57;;;;;;;;;;;;;;;;;;5002479;28;20248;-74
2022/11/28 02:12:22;;;;;;;;;;;;;;;;;;4995930;28;19916;-73
2022/11/28 02:14:47;;;;;;;;;;;;;;;;;;4995006;28;19910;-73
2022/11/28 02:17:12;;;;;;;;;;;;;;;;;;4992944;28;19910;-73
2022/11/28 02:19:37;;;;;;;;;;;;;;;;;;4993933;28;19921;-73
2022/11/28 02:22:03;;;;;;;;;;;;;;;;;;4992093;28;19910;-73
2022/11/28 02:24:28;;;;;;;;;;;;;;;;;;4995393;28;19923;-72
2022/11/28 02:26:53;;;;;;;;;;;;;;;;;;4995806;28;19910;-79
2022/11/28 02:29:18;;;;;;;;;;;;;;;;;;4983979;28;20036;-78
2022/11/28 02:31:43;;;;;;;;;;;;;;;;;;4987262;28;19920;-79
2022/11/28 02:34:08;;;;;;;;;;;;;;;;;;4988448;28;19909;-78
2022/11/28 02:36:33;;;;;;;;;;;;;;;;;;4996796;28;19910;-78
2022/11/28 02:38:58;;;;;;;;;;;;;;;;;;4996474;28;19976;-79
2022/11/28 02:41:24;;;;;;;;;;;;;;;;;;4999854;28;19905;-79
2022/11/28 02:43:49;;;;;;;;;;;;;;;;;;4999486;28;19906;-78
2022/11/28 02:46:14;;;;;;;;;;;;;;;;;;4994010;28;19914;-74
2022/11/28 02:48:39;;;;;;;;;;;;;;;;;;4993205;28;20004;-74
2022/11/28 02:51:05;;;;;;;;;;;;;;;;;;4995522;28;19906;-75
2022/11/28 02:53:30;;;;;;;;;;;;;;;;;;4994177;28;19978;-74
2022/11/28 02:55:55;;;;;;;;;;;;;;;;;;4993817;28;19906;-75
2022/11/28 02:58:20;;;;;;;;;;;;;;;;;;4994969;28;19921;-75
2022/11/28 03:00:46;;;;;;;;;;;;;;;;;;4992416;28;19993;-75
2022/11/28 03:03:11;;;;;;;;;;;;;;;;;;4993943;28;20028;-80
2022/11/28 03:05:36;;;;;;;;;;;;;;;;;;4993903;28;19909;-77
2022/11/28 03:08:01;;;;;;;;;;;;;;;;;;4994996;28;19929;-77
2022/11/28 03:10:27;;;;;;;;;;;;;;;;;;4994542;28;19909;-76
2022/11/28 03:12:52;;;;;;;;;;;;;;;;;;4997543;28;20120;-77
2022/11/28 03:15:17;;;;;;;;;;;;;;;;;;4998391;28;19914;-78
2022/11/28 03:17:43;;;;;;;;;;;;;;;;;;4995129;28;19920;-77
2022/11/28 03:20:08;;;;;;;;;;;;;;;;;;4994004;28;20000;-74
2022/11/28 03:22:33;;;;;;;;;;;;;;;;;;4994222;28;19910;-77
2022/11/28 03:24:58;;;;;;;;;;;;;;;;;;4992323;28;19910;-74
2022/11/28 03:27:23;;;;;;;;;;;;;;;;;;4992961;28;20388;-74
2022/11/28 03:29:48;;;;;;;;;;;;;;;;;;4992774;28;19910;-74
2022/11/28 03:32:13;;;;;;;;;;;;;;;;;;4993422;28;20004;-74
2022/11/28 03:34:38;;;;;;;;;;;;;;;;;;4992184;28;19949;-75
2022/11/28 03:37:04;;;;;;;;;;;;;;;;;;4993993;28;19971;-74
2022/11/28 03:39:29;;;;;;;;;;;;;;;;;;4993534;28;19937;-80
2022/11/28 03:41:54;;;;;;;;;;;;;;;;;;4992367;28;19909;-71
2022/11/28 03:44:19;;;;;;;;;;;;;;;;;;4994874;28;19910;-71
2022/11/28 03:46:44;;;;;;;;;;;;;;;;;;5000601;28;20007;-70
2022/11/28 03:49:09;;;;;;;;;;;;;;;;;;4993310;28;19980;-71
2022/11/28 03:51:34;;;;;;;;;;;;;;;;;;4994422;28;19949;-71
2022/11/28 03:53:59;;;;;;;;;;;;;;;;;;4992286;28;19964;-70
2022/11/28 03:56:24;;;;;;;;;;;;;;;;;;4993383;28;19909;-72
2022/11/28 03:58:50;;;;;;;;;;;;;;;;;;4993723;28;19999;-73
2022/11/28 04:01:15;;;;;;;;;;;;;;;;;;4993261;28;19936;-74
2022/11/28 04:03:40;;;;;;;;;;;;;;;;;;4992532;28;19910;-74
2022/11/28 04:06:05;;;;;;;;;;;;;;;;;;4994134;28;19961;-73
2022/11/28 04:08:30;;;;;;;;;;;;;;;;;;4990845;28;19926;-72
2022/11/28 04:10:56;;;;;;;;;;;;;;;;;;4992066;28;19916;-73
2022/11/28 04:13:21;;;;;;;;;;;;;;;;;;5001499;28;20372;-73
2022/11/28 04:15:46;;;;;;;;;;;;;;;;;;4979670;28;19980;-80
2022/11/28 04:18:11;;;;;;;;;;;;;;;;;;4999232;28;20212;-88
2022/11/28 04:20:36;;;;;;;;;;;;;;;;;;5006079;28;20551;-87
2022/11/28 04:23:01;;;;;;;;;;;;;;;;;;4992069;28;19972;-86
2022/11/28 04:25:26;;;;;;;;;;;;;;;;;;4992785;28;20260;-87
2022/11/28 04:27:51;;;;;;;;;;;;;;;;;;4998286;28;20424;-86
2022/11/28 04:30:17;;;;;;;;;;;;;;;;;;4993903;28;20345;-87
2022/11/28 04:32:42;;;;;;;;;;;;;;;;;;5007845;28;19933;-87
2022/11/28 04:35:07;;;;;;;;;;;;;;;;;;4992553;28;20008;-77
2022/11/28 04:37:32;;;;;;;;;;;;;;;;;;4991751;28;20003;-75
2022/11/28 04:39:57;;;;;;;;;;;;;;;;;;4993216;28;20786;-75
2022/11/28 04:42:22;;;;;;;;;;;;;;;;;;4994855;28;19913;-73
2022/11/28 04:44:47;;;;;;;;;;;;;;;;;;4990587;28;19909;-74
2022/11/28 04:47:12;;;;;;;;;;;;;;;;;;4992078;28;19910;-74
2022/11/28 04:49:37;;;;;;;;;;;;;;;;;;4994905;28;19912;-75
2022/11/28 04:52:03;;;;;;;;;;;;;;;;;;4993293;28;19941;-74
2022/11/28 04:54:28;;;;;;;;;;;;;;;;;;4990499;28;19909;-75
2022/11/28 04:56:53;;;;;;;;;;;;;;;;;;4999145;28;19912;-87
2022/11/28 04:59:18;;;;;;;;;;;;;;;;;;5002904;28;19964;-87
2022/11/28 05:01:43;;;;;;;;;;;;;;;;;;4992687;28;19917;-88
2022/11/28 05:04:08;;;;;;;;;;;;;;;;;;4992453;28;19910;-88
2022/11/28 05:06:33;;;;;;;;;;;;;;;;;;4995989;28;20005;-90
2022/11/28 05:08:58;;;;;;;;;;;;;;;;;;5019713;28;19917;-87
2022/11/28 05:11:24;;;;;;;;;;;;;;;;;;4993579;28;19913;-73
2022/11/28 05:13:49;;;;;;;;;;;;;;;;;;5000238;28;19910;-77
2022/11/28 05:16:14;;;;;;;;;;;;;;;;;;4991748;28;19912;-76
2022/11/28 05:18:39;;;;;;;;;;;;;;;;;;4990239;28;19957;-77
2022/11/28 05:21:07;;;;;;;;;;;;;;;;;;4995610;28;19957;-76
2022/11/28 05:23:33;;;;;;;;;;;;;;;;;;4995987;28;20387;-76
2022/11/28 05:25:58;;;;;;;;;;;;;;;;;;4991480;28;20350;-76
2022/11/28 05:28:23;;;;;;;;;;;;;;;;;;4990470;28;19913;-77
2022/11/28 05:30:48;;;;;;;;;;;;;;;;;;4980930;28;19924;-81
2022/11/28 05:33:13;;;;;;;;;;;;;;;;;;4988916;28;19910;-90
2022/11/28 05:35:39;;;;;;;;;;;;;;;;;;4991247;28;19917;-87
2022/11/28 05:38:04;;;;;;;;;;;;;;;;;;4992425;28;19925;-86
2022/11/28 05:40:29;;;;;;;;;;;;;;;;;;5008789;28;19917;-87
2022/11/28 05:42:54;;;;;;;;;;;;;;;;;;5005844;28;19909;-87
2022/11/28 05:45:19;;;;;;;;;;;;;;;;;;4990967;28;19980;-87
2022/11/28 05:47:44;;;;;;;;;;;;;;;;;;4994467;28;19913;-90
2022/11/28 05:50:09;;;;;;;;;;;;;;;;;;5004411;28;19905;-74
2022/11/28 05:52:34;;;;;;;;;;;;;;;;;;4996823;28;19914;-81
2022/11/28 05:55:00;;;;;;;;;;;;;;;;;;4996060;28;19910;-80
2022/11/28 05:57:25;;;;;;;;;;;;;;;;;;4991311;28;19916;-78
2022/11/28 05:59:50;;;;;;;;;;;;;;;;;;4988981;28;19956;-78
2022/11/28 06:02:15;;;;;;;;;;;;;;;;;;4991103;28;19956;-80
2022/11/28 06:04:40;;;;;;;;;;;;;;;;;;4990276;28;19961;-80
2022/11/28 06:07:06;;;;;;;;;;;;;;;;;;4992720;28;20324;-73
2022/11/28 06:09:31;;;;;;;;;;;;;;;;;;4977399;28;19918;-76
2022/11/28 06:11:56;;;;;;;;;;;;;;;;;;4992501;28;20321;-76
2022/11/28 06:14:21;;;;;;;;;;;;;;;;;;4987980;28;19910;-77
2022/11/28 06:16:46;;;;;;;;;;;;;;;;;;4989204;28;19918;-77
2022/11/28 06:19:11;;;;;;;;;;;;;;;;;;4993890;28;19922;-77
2022/11/28 06:21:36;;;;;;;;;;;;;;;;;;4993264;28;19920;-75
2022/11/28 06:24:02;;;;;;;;;;;;;;;;;;4995966;28;20300;-71
2022/11/28 06:26:27;;;;;;;;;;;;;;;;;;5003100;28;19913;-73
2022/11/28 06:28:54;;;;;;;;;;;;;;;;;;4993467;28;19935;-75
2022/11/28 06:31:19;;;;;;;;;;;;;;;;;;4985616;28;19925;-76
2022/11/28 06:33:44;;;;;;;;;;;;;;;;;;4998757;28;19906;-79
2022/11/28 06:36:09;;;;;;;;;;;;;;;;;;4994478;28;19916;-78
2022/11/28 06:38:34;;;;;;;;;;;;;;;;;;4993656;28;19922;-79
2022/11/28 06:40:59;;;;;;;;;;;;;;;;;;4995854;28;20062;-78
2022/11/28 06:43:24;;;;;;;;;;;;;;;;;;4991579;28;20005;-75
2022/11/28 06:45:50;;;;;;;;;;;;;;;;;;4993842;28;19956;-79
2022/11/28 06:48:15;;;;;;;;;;;;;;;;;;4997631;28;19929;-78
2022/11/28 06:50:40;;;;;;;;;;;;;;;;;;4995412;28;19910;-80
2022/11/28 06:53:05;;;;;;;;;;;;;;;;;;4994767;28;19914;-79
2022/11/28 06:55:30;;;;;;;;;;;;;;;;;;4995469;28;19917;-76
2022/11/28 06:57:55;;;;;;;;;;;;;;;;;;5001797;28;19926;-81
2022/11/28 07:00:20;;;;;;;;;;;;;;;;;;4994076;28;19932;-74
2022/11/28 07:02:46;;;;;;;;;;;;;;;;;;4993796;28;20261;-70
2022/11/28 07:05:11;;;;;;;;;;;;;;;;;;4993416;28;20353;-80
2022/11/28 07:07:36;;;;;;;;;;;;;;;;;;4993960;28;20061;-79
2022/11/28 07:10:01;;;;;;;;;;;;;;;;;;4990239;28;19956;-77
2022/11/28 07:12:26;;;;;;;;;;;;;;;;;;4996177;28;19968;-78
2022/11/28 07:14:51;;;;;;;;;;;;;;;;;;5001741;28;19905;-79
2022/11/28 07:17:16;;;;;;;;;;;;;;;;;;5000731;28;19913;-78
2022/11/28 07:19:42;;;;;;;;;;;;;;;;;;4995801;28;19968;-73
2022/11/28 07:22:07;;;;;;;;;;;;;;;;;;4992388;28;19958;-71
2022/11/28 07:24:32;;;;;;;;;;;;;;;;;;4992415;28;19968;-73
2022/11/28 07:26:57;;;;;;;;;;;;;;;;;;4997902;28;19940;-75
2022/11/28 07:29:23;;;;;;;;;;;;;;;;;;5000816;28;19906;-72
2022/11/28 07:31:48;;;;;;;;;;;;;;;;;;4995620;28;19967;-74
2022/11/28 07:34:13;;;;;;;;;;;;;;;;;;4995791;28;20000;-72
2022/11/28 07:36:38;;;;;;;;;;;;;;;;;;5001391;28;19972;-74
2022/11/28 07:39:03;;;;;;;;;;;;;;;;;;4991150;28;20010;-75
2022/11/28 07:41:29;;;;;;;;;;;;;;;;;;4992133;28;20400;-65
2022/11/28 07:43:54;;;;;;;;;;;;;;;;;;4995630;28;20383;-75
2022/11/28 07:46:19;;;;;;;;;;;;;;;;;;4988035;28;19913;-76
2022/11/28 07:48:44;;;;;;;;;;;;;;;;;;4984329;28;19950;-73
2022/11/28 07:51:09;;;;;;;;;;;;;;;;;;4995137;28;19960;-74
2022/11/28 07:53:34;;;;;;;;;;;;;;;;;;4989897;28;19933;-74
2022/11/28 07:55:59;;;;;;;;;;;;;;;;;;4988643;28;19917;-76
2022/11/28 07:58:24;;;;;;;;;;;;;;;;;;4990423;28;19917;-84
2022/11/28 08:00:50;;;;;;;;;;;;;;;;;;4993996;28;20207;-75
2022/11/28 08:03:15;;;;;;;;;;;;;;;;;;5000819;28;19967;-74
2022/11/28 08:05:41;;;;;;;;;;;;;;;;;;4987588;28;20295;-76
2022/11/28 08:08:06;;;;;;;;;;;;;;;;;;4991134;28;20405;-75
2022/11/28 08:10:31;;;;;;;;;;;;;;;;;;4977825;28;19913;-73
2022/11/28 08:12:56;;;;;;;;;;;;;;;;;;4995494;28;19921;-73
2022/11/28 08:15:21;;;;;;;;;;;;;;;;;;4987308;28;19914;-81
2022/11/28 08:17:47;;;;;;;;;;;;;;;;;;4994942;28;19913;-70
2022/11/28 08:20:12;;;;;;;;;;;;;;;;;;4990384;28;19909;-70
2022/11/28 08:22:37;;;;;;;;;;;;;;;;;;4991178;28;19910;-70
2022/11/28 08:25:02;;;;;;;;;;;;;;;;;;4991013;28;19909;-70
2022/11/28 08:27:28;;;;;;;;;;;;;;;;;;4988130;28;20353;-71
2022/11/28 08:29:53;;;;;;;;;;;;;;;;;;4983009;28;19973;-71
2022/11/28 08:32:19;;;;;;;;;;;;;;;;;;4988767;28;20010;-68
2022/11/28 08:34:44;;;;;;;;;;;;;;;;;;4996766;28;20404;-73
2022/11/28 08:37:09;;;;;;;;;;;;;;;;;;4987616;28;19906;-73
2022/11/28 08:39:34;;;;;;;;;;;;;;;;;;4989259;28;19918;-75
2022/11/28 08:41:59;;;;;;;;;;;;;;;;;;4990881;28;19909;-76
2022/11/28 08:44:24;;;;;;;;;;;;;;;;;;4995733;28;19977;-75
2022/11/28 08:46:49;;;;;;;;;;;;;;;;;;4987449;28;19913;-74
2022/11/28 08:49:15;;;;;;;;;;;;;;;;;;4987108;28;19917;-79
2022/11/28 08:51:40;;;;;;;;;;;;;;;;;;4992293;28;19913;-80
2022/11/28 08:54:05;;;;;;;;;;;;;;;;;;4998621;28;19910;-79
2022/11/28 08:56:30;;;;;;;;;;;;;;;;;;4986950;28;20367;-72
2022/11/28 08:58:55;;;;;;;;;;;;;;;;;;4994544;28;19917;-72
2022/11/28 09:01:20;;;;;;;;;;;;;;;;;;4987307;28;20004;-73
2022/11/28 09:03:46;;;;;;;;;;;;;;;;;;4991927;28;19953;-72
2022/11/28 09:06:11;;;;;;;;;;;;;;;;;;5002372;28;20418;-76
2022/11/28 09:08:36;;;;;;;;;;;;;;;;;;4989114;28;19921;-72
2022/11/28 09:11:01;;;;;;;;;;;;;;;;;;4985124;28;19910;-73
2022/11/28 09:13:57;;;;;;;;;;;;;;;;;;4997388;28;19917;-76
2022/11/28 09:16:22;;;;;;;;;;;;;;;;;;4987760;28;19965;-72
2022/11/28 09:18:47;;;;;;;;;;;;;;;;;;4995001;28;19921;-75
2022/11/28 09:21:12;;;;;;;;;;;;;;;;;;4988956;28;20274;-75
2022/11/28 09:23:38;;;;;;;;;;;;;;;;;;4992879;28;19996;-74
2022/11/28 09:26:03;;;;;;;;;;;;;;;;;;4998280;28;20344;-72
2022/11/28 09:28:28;;;;;;;;;;;;;;;;;;4991985;28;20439;-75
2022/11/28 09:30:53;;;;;;;;;;;;;;;;;;4988879;28;19956;-72
2022/11/28 09:33:18;;;;;;;;;;;;;;;;;;4987444;28;19906;-71
2022/11/28 09:35:43;;;;;;;;;;;;;;;;;;4987236;28;19914;-72
2022/11/28 09:38:08;;;;;;;;;;;;;;;;;;4998584;28;19996;-72
2022/11/28 09:40:33;;;;;;;;;;;;;;;;;;4986218;28;20004;-73
2022/11/28 09:42:59;;;;;;;;;;;;;;;;;;5000363;28;19937;-72
2022/11/28 09:45:25;;;;;;;;;;;;;;;;;;4989933;28;20003;-71
2022/11/28 09:47:50;;;;;;;;;;;;;;;;;;4993593;28;20017;-74
2022/11/28 09:50:15;;;;;;;;;;;;;;;;;;4992079;28;20001;-74
2022/11/28 09:52:40;;;;;;;;;;;;;;;;;;4996054;28;19993;-76
2022/11/28 09:55:05;;;;;;;;;;;;;;;;;;4990482;28;19910;-74
2022/11/28 09:57:31;;;;;;;;;;;;;;;;;;4993680;28;19920;-74
2022/11/28 09:59:56;;;;;;;;;;;;;;;;;;4996873;28;19914;-74
2022/11/28 10:02:21;;;;;;;;;;;;;;;;;;5004700;28;19988;-75
2022/11/28 10:04:46;;;;;;;;;;;;;;;;;;4991026;28;20377;-79
2022/11/28 10:07:11;;;;;;;;;;;;;;;;;;4999594;28;20436;-78
2022/11/28 10:09:36;;;;;;;;;;;;;;;;;;5004021;28;19925;-73
2022/11/28 10:12:09;;;;;;;;;;;;;;;;;;4981396;28;20016;-73
2022/11/28 10:14:34;;;;;;;;;;;;;;;;;;4994831;28;19988;-73
2022/11/28 10:16:59;;;;;;;;;;;;;;;;;;4991573;28;19909;-73
2022/11/28 10:19:25;;;;;;;;;;;;;;;;;;4997512;28;19933;-75
2022/11/28 10:21:50;;;;;;;;;;;;;;;;;;4995970;28;19909;-74
2022/11/28 10:24:15;;;;;;;;;;;;;;;;;;4994960;28;19983;-74
2022/11/28 10:26:40;;;;;;;;;;;;;;;;;;4994067;28;19948;-79
2022/11/28 10:29:05;;;;;;;;;;;;;;;;;;4997157;28;19909;-79
2022/11/28 10:31:30;;;;;;;;;;;;;;;;;;4993847;28;19917;-81
2022/11/28 10:33:56;;;;;;;;;;;;;;;;;;4994550;28;19917;-83
2022/11/28 10:36:21;;;;;;;;;;;;;;;;;;4996728;28;19910;-81
2022/11/28 10:38:46;;;;;;;;;;;;;;;;;;4994038;28;19925;-82
2022/11/28 10:41:11;;;;;;;;;;;;;;;;;;4997832;28;19912;-79
2022/11/28 10:43:37;;;;;;;;;;;;;;;;;;5002350;28;19909;-72
2022/11/28 10:46:02;;;;;;;;;;;;;;;;;;4994198;28;19917;-74
2022/11/28 10:48:27;;;;;;;;;;;;;;;;;;4992930;28;20342;-74
2022/11/28 10:50:52;;;;;;;;;;;;;;;;;;5002050;28;19953;-73
2022/11/28 10:53:17;;;;;;;;;;;;;;;;;;4995090;28;19917;-74
2022/11/28 10:55:42;;;;;;;;;;;;;;;;;;4992864;28;19913;-73
2022/11/28 10:58:07;;;;;;;;;;;;;;;;;;4991438;28;20024;-72
2022/11/28 11:00:32;;;;;;;;;;;;;;;;;;4990707;28;20000;-74
2022/11/28 11:02:57;;;;;;;;;;;;;;;;;;4986835;28;19992;-73
2022/11/28 11:05:23;;;;;;;;;;;;;;;;;;4991991;28;19910;-80
2022/11/28 11:07:48;;;;;;;;;;;;;;;;;;4991545;28;19952;-77
2022/11/28 11:10:13;;;;;;;;;;;;;;;;;;4993517;28;19909;-76
2022/11/28 11:12:38;;;;;;;;;;;;;;;;;;5001121;28;19912;-76
2022/11/28 11:15:03;;;;;;;;;;;;;;;;;;5002373;28;20329;-79
2022/11/28 11:17:28;;;;;;;;;;;;;;;;;;4995570;28;19953;-77
2022/11/28 11:19:53;;;;;;;;;;;;;;;;;;4982317;28;19921;-78
2022/11/28 11:22:19;;;;;;;;;;;;;;;;;;4992555;28;20313;-75
2022/11/28 11:24:44;;;;;;;;;;;;;;;;;;4991033;28;20354;-76
2022/11/28 11:27:09;;;;;;;;;;;;;;;;;;4991156;28;19996;-74
2022/11/28 11:29:34;;;;;;;;;;;;;;;;;;4992317;28;19964;-75
2022/11/28 11:32:02;;;;;;;;;;;;;;;;;;4996004;28;19910;-77
2022/11/28 11:34:27;;;;;;;;;;;;;;;;;;4987149;28;20414;-76
2022/11/28 11:36:52;;;;;;;;;;;;;;;;;;4990960;28;20280;-76
2022/11/28 11:39:17;;;;;;;;;;;;;;;;;;4993197;28;19917;-74
2022/11/28 11:41:42;;;;;;;;;;;;;;;;;;4997099;28;20371;-71
2022/11/28 11:44:08;;;;;;;;;;;;;;;;;;4994341;28;19905;-72
2022/11/28 11:46:33;;;;;;;;;;;;;;;;;;4997397;28;19991;-71
2022/11/28 11:48:58;;;;;;;;;;;;;;;;;;4989951;28;19950;-70
2022/11/28 11:51:23;;;;;;;;;;;;;;;;;;4998117;28;19963;-70
2022/11/28 11:53:48;;;;;;;;;;;;;;;;;;4996741;28;19948;-69
2022/11/28 11:56:13;;;;;;;;;;;;;;;;;;4993439;28;19913;-74
2022/11/28 11:58:39;;;;;;;;;;;;;;;;;;4992515;28;19918;-73
2022/11/28 12:01:05;;;;;;;;;;;;;;;;;;4985271;28;20055;-70
2022/11/28 12:03:30;;;;;;;;;;;;;;;;;;4997271;28;19917;-70
2022/11/28 12:05:56;;;;;;;;;;;;;;;;;;4992773;28;20825;-71
2022/11/28 12:08:23;;;;;;;;;;;;;;;;;;5009509;28;19956;-72
2022/11/28 12:10:48;;;;;;;;;;;;;;;;;;4988019;28;20000;-72
2022/11/28 12:13:14;;;;;;;;;;;;;;;;;;5012767;28;20008;-71
2022/11/28 12:15:39;;;;;;;;;;;;;;;;;;4990686;28;19920;-71
2022/11/28 12:18:04;;;;;;;;;;;;;;;;;;5019620;28;19924;-74
2022/11/28 12:20:29;;;;;;;;;;;;;;;;;;4992632;28;19909;-76
2022/11/28 12:22:54;;;;;;;;;;;;;;;;;;5012488;28;19905;-74
2022/11/28 12:25:19;;;;;;;;;;;;;;;;;;5017036;28;19945;-75
2022/11/28 12:27:44;;;;;;;;;;;;;;;;;;5009615;28;19913;-73
2022/11/28 12:30:09;;;;;;;;;;;;;;;;;;5008953;28;19928;-73
2022/11/28 12:32:35;;;;;;;;;;;;;;;;;;5014976;28;19991;-71
2022/11/28 12:35:00;;;;;;;;;;;;;;;;;;5005121;28;19949;-70
2022/11/28 12:37:25;;;;;;;;;;;;;;;;;;5012729;28;19909;-70
2022/11/28 12:39:50;;;;;;;;;;;;;;;;;;5008509;28;19936;-72
2022/11/28 12:42:15;;;;;;;;;;;;;;;;;;5007433;28;19909;-72
2022/11/28 12:44:40;;;;;;;;;;;;;;;;;;5008831;28;19996;-72
2022/11/28 12:47:06;;;;;;;;;;;;;;;;;;5005381;28;19915;-74
2022/11/28 12:49:31;;;;;;;;;;;;;;;;;;5020625;28;19909;-73
2022/11/28 12:51:57;;;;;;;;;;;;;;;;;;5009982;28;19955;-74
2022/11/28 12:54:22;;;;;;;;;;;;;;;;;;4990016;28;20597;-79
2022/11/28 12:56:48;;;;;;;;;;;;;;;;;;4989840;28;20008;-78
2022/11/28 12:59:13;;;;;;;;;;;;;;;;;;4991045;28;19972;-78
2022/11/28 13:01:39;;;;;;;;;;;;;;;;;;4989723;28;20382;-74
2022/11/28 13:04:04;;;;;;;;;;;;;;;;;;4986652;28;19918;-74
2022/11/28 13:06:29;;;;;;;;;;;;;;;;;;4994868;28;19917;-73
2022/11/28 13:08:54;;;;;;;;;;;;;;;;;;4991878;28;19918;-74
2022/11/28 13:11:19;;;;;;;;;;;;;;;;;;4989304;28;19956;-77
2022/11/28 13:13:45;;;;;;;;;;;;;;;;;;4990528;28;19918;-72
2022/11/28 13:16:11;;;;;;;;;;;;;;;;;;4989411;28;19918;-71
2022/11/28 13:18:36;;;;;;;;;;;;;;;;;;4990810;28;20012;-70
2022/11/28 13:21:01;;;;;;;;;;;;;;;;;;4993647;28;19914;-71
2022/11/28 13:23:27;;;;;;;;;;;;;;;;;;4993774;28;19912;-73
2022/11/28 13:25:53;;;;;;;;;;;;;;;;;;4995151;28;20013;-74
2022/11/28 13:28:19;;;;;;;;;;;;;;;;;;4993434;28;19933;-72
2022/11/28 13:30:44;;;;;;;;;;;;;;;;;;4991676;28;19913;-71
2022/11/28 13:33:09;;;;;;;;;;;;;;;;;;4991409;28;19910;-70
2022/11/28 13:35:34;;;;;;;;;;;;;;;;;;4991058;28;19917;-72
2022/11/28 13:37:59;;;;;;;;;;;;;;;;;;4994318;28;19925;-71
2022/11/28 13:40:25;;;;;;;;;;;;;;;;;;4992391;28;20352;-71
2022/11/28 13:42:50;;;;;;;;;;;;;;;;;;4999238;28;19910;-71
2022/11/28 13:45:15;;;;;;;;;;;;;;;;;;4995866;28;19916;-71
2022/11/28 13:47:40;;;;;;;;;;;;;;;;;;4995046;28;19910;-75
2022/11/28 13:50:06;;;;;;;;;;;;;;;;;;4994129;28;19914;-74
2022/11/28 13:52:31;;;;;;;;;;;;;;;;;;5002378;28;19905;-71
2022/11/28 13:54:56;;;;;;;;;;;;;;;;;;4995639;28;19913;-71
2022/11/28 13:57:21;;;;;;;;;;;;;;;;;;4996556;28;20621;-72
2022/11/28 13:59:46;;;;;;;;;;;;;;;;;;4990924;28;19972;-72
2022/11/28 14:02:12;;;;;;;;;;;;;;;;;;4987185;28;19914;-74
2022/11/28 14:04:37;;;;;;;;;;;;;;;;;;4991307;28;19933;-84
2022/11/28 14:07:02;;;;;;;;;;;;;;;;;;4997033;28;19916;-75
2022/11/28 14:09:27;;;;;;;;;;;;;;;;;;4994053;28;19996;-83
2022/11/28 14:11:52;;;;;;;;;;;;;;;;;;4994772;28;19910;-78
2022/11/28 14:14:17;;;;;;;;;;;;;;;;;;4992458;28;19909;-79
2022/11/28 14:16:42;;;;;;;;;;;;;;;;;;4993418;28;20332;-78
2022/11/28 14:19:08;;;;;;;;;;;;;;;;;;4992507;28;19924;-80
2022/11/28 14:21:33;;;;;;;;;;;;;;;;;;4986698;28;20000;-82
2022/11/28 14:23:58;;;;;;;;;;;;;;;;;;4993210;28;20632;-73
2022/11/28 14:26:23;;;;;;;;;;;;;;;;;;4999591;28;19909;-76
2022/11/28 14:28:48;;;;;;;;;;;;;;;;;;4992110;28;20005;-76
2022/11/28 14:31:14;;;;;;;;;;;;;;;;;;4990928;28;19910;-76
2022/11/28 14:33:39;;;;;;;;;;;;;;;;;;4988450;28;19909;-75
2022/11/28 14:36:04;;;;;;;;;;;;;;;;;;4990761;28;19909;-74
2022/11/28 14:38:29;;;;;;;;;;;;;;;;;;4993527;28;19918;-74
2022/11/28 14:40:55;;;;;;;;;;;;;;;;;;4992797;28;20000;-75
2022/11/28 14:43:20;;;;;;;;;;;;;;;;;;4993672;28;19965;-79
2022/11/28 14:45:45;;;;;;;;;;;;;;;;;;4992663;28;19917;-73
2022/11/28 14:48:10;;;;;;;;;;;;;;;;;;4996761;28;19913;-75
2022/11/28 14:50:36;;;;;;;;;;;;;;;;;;4991225;28;19910;-74
2022/11/28 14:53:01;;;;;;;;;;;;;;;;;;4991372;28;19909;-74
2022/11/28 14:55:26;;;;;;;;;;;;;;;;;;4997688;28;19910;-72
2022/11/28 14:57:51;;;;;;;;;;;;;;;;;;5000328;28;19913;-76
2022/11/28 15:00:16;;;;;;;;;;;;;;;;;;4990071;28;19917;-83
2022/11/28 15:02:41;;;;;;;;;;;;;;;;;;4992851;28;19913;-69
2022/11/28 15:05:06;;;;;;;;;;;;;;;;;;4986430;28;19993;-72
2022/11/28 15:07:32;;;;;;;;;;;;;;;;;;4995466;28;19916;-70
2022/11/28 15:09:57;;;;;;;;;;;;;;;;;;4987646;28;19917;-71
2022/11/28 15:12:22;;;;;;;;;;;;;;;;;;4991573;28;19914;-70
2022/11/28 15:14:47;;;;;;;;;;;;;;;;;;5001949;28;19960;-71
2022/11/28 15:17:12;;;;;;;;;;;;;;;;;;4991274;28;20358;-71
2022/11/28 15:19:37;;;;;;;;;;;;;;;;;;4992101;28;19967;-73
2022/11/28 15:22:02;;;;;;;;;;;;;;;;;;4993755;28;19917;-73
2022/11/28 15:24:28;;;;;;;;;;;;;;;;;;4987462;28;19917;-74
2022/11/28 15:26:53;;;;;;;;;;;;;;;;;;4988951;28;19906;-73
2022/11/28 15:29:18;;;;;;;;;;;;;;;;;;4995714;28;19928;-74
2022/11/28 15:31:43;;;;;;;;;;;;;;;;;;4992756;28;20053;-74
2022/11/28 15:34:08;;;;;;;;;;;;;;;;;;4991617;28;20016;-72
2022/11/28 15:36:34;;;;;;;;;;;;;;;;;;4991605;28;20007;-72
2022/11/28 15:38:59;;;;;;;;;;;;;;;;;;4992951;28;19921;-74
2022/11/28 15:41:24;;;;;;;;;;;;;;;;;;4995755;28;19916;-79
2022/11/28 15:43:52;;;;;;;;;;;;;;;;;;5000340;28;19909;-77
2022/11/28 15:46:25;;;;;;;;;;;;;;;;;;4990157;28;20412;-77
2022/11/28 15:49:05;;;;;;;;;;;;;;;;;;4992348;28;19910;-78
2022/11/28 15:51:38;;;;;;;;;;;;;;;;;;4986972;28;19976;-74
2022/11/28 15:54:07;;;;;;;;;;;;;;;;;;4991132;28;19956;-74
2022/11/28 15:56:36;;;;;;;;;;;;;;;;;;5025919;28;20000;-69
2022/11/28 15:59:01;;;;;;;;;;;;;;;;;;5021946;28;19964;-70
2022/11/28 16:01:27;;;;;;;;;;;;;;;;;;5035574;28;19909;-69
2022/11/28 16:03:52;;;;;;;;;;;;;;;;;;5027709;28;19914;-70
2022/11/28 16:06:17;;;;;;;;;;;;;;;;;;5026969;28;20208;-70
2022/11/28 16:08:42;;;;;;;;;;;;;;;;;;5029409;28;20016;-71
2022/11/28 16:11:07;;;;;;;;;;;;;;;;;;5021668;28;20381;-71
2022/11/28 16:13:32;;;;;;;;;;;;;;;;;;5022002;28;19966;-74
2022/11/28 16:16:00;;;;;;;;;;;;;;;;;;5026978;28;20379;-76
2022/11/28 16:18:25;;;;;;;;;;;;;;;;;;5007424;23;20013;-69
2022/11/28 16:20:50;;;;;;;;;;;;;;;;;;4970577;28;19996;-70
2022/11/28 16:23:16;;;;;;;;;;;;;;;;;;4974924;28;19914;-69
2022/11/28 16:25:41;;;;;;;;;;;;;;;;;;4971199;28;20309;-71
2022/11/28 16:28:06;;;;;;;;;;;;;;;;;;4973288;28;19914;-69
2022/11/28 16:30:31;;;;;;;;;;;;;;;;;;4976807;28;19910;-68
2022/11/28 16:32:56;;;;;;;;;;;;;;;;;;4980353;28;20256;-71